sensor_id;sensor_type;location;lat;lon;timestamp;P1;durP1;ratioP1;P2;durP2;ratioP2
4464;SDS011;2245;48.136;13.428;2023-03-29T00:01:36;4.10;;;2.87;;
4464;SDS011;2245;48.136;13.428;2023-03-29T00:04:06;5.70;;;2.53;;
4464;SDS011;2245;48.136;13.428;2023-03-29T00:06:33;12.90;;;2.97;;
4464;SDS011;2245;48.136;13.428;2023-03-29T00:09:02;4.30;;;3.00;;
4464;SDS011;2245;48.136;13.428;2023-03-29T00:11:31;4.30;;;2.50;;
4464;SDS011;2245;48.136;13.428;2023-03-29T00:13:58;2.30;;;2.10;;
4464;SDS011;2245;48.136;13.428;2023-03-29T00:16:25;1.80;;;1.67;;
4464;SDS011;2245;48.136;13.428;2023-03-29T00:18:52;5.20;;;2.30;;
4464;SDS011;2245;48.136;13.428;2023-03-29T00:21:19;15.07;;;3.10;;
4464;SDS011;2245;48.136;13.428;2023-03-29T00:23:46;3.87;;;2.97;;
4464;SDS011;2245;48.136;13.428;2023-03-29T00:26:14;4.30;;;3.00;;
4464;SDS011;2245;48.136;13.428;2023-03-29T00:28:41;2.83;;;2.30;;
4464;SDS011;2245;48.136;13.428;2023-03-29T00:31:08;4.43;;;2.90;;
4464;SDS011;2245;48.136;13.428;2023-03-29T00:33:36;4.67;;;3.30;;
4464;SDS011;2245;48.136;13.428;2023-03-29T00:36:03;4.63;;;2.50;;
4464;SDS011;2245;48.136;13.428;2023-03-29T00:38:31;3.60;;;2.63;;
4464;SDS011;2245;48.136;13.428;2023-03-29T00:40:58;8.90;;;3.13;;
4464;SDS011;2245;48.136;13.428;2023-03-29T00:43:26;5.03;;;2.70;;
4464;SDS011;2245;48.136;13.428;2023-03-29T00:45:53;5.40;;;3.30;;
4464;SDS011;2245;48.136;13.428;2023-03-29T00:48:20;3.33;;;2.70;;
4464;SDS011;2245;48.136;13.428;2023-03-29T00:50:50;5.40;;;3.83;;
4464;SDS011;2245;48.136;13.428;2023-03-29T00:53:20;4.10;;;2.63;;
4464;SDS011;2245;48.136;13.428;2023-03-29T00:55:50;3.33;;;3.03;;
4464;SDS011;2245;48.136;13.428;2023-03-29T00:58:20;6.57;;;4.50;;
4464;SDS011;2245;48.136;13.428;2023-03-29T01:00:53;3.87;;;3.20;;
4464;SDS011;2245;48.136;13.428;2023-03-29T01:03:26;4.40;;;3.10;;
4464;SDS011;2245;48.136;13.428;2023-03-29T01:05:57;3.60;;;2.50;;
4464;SDS011;2245;48.136;13.428;2023-03-29T01:08:28;5.37;;;3.37;;
4464;SDS011;2245;48.136;13.428;2023-03-29T01:10:58;3.43;;;2.60;;
4464;SDS011;2245;48.136;13.428;2023-03-29T01:13:30;4.70;;;3.23;;
4464;SDS011;2245;48.136;13.428;2023-03-29T01:16:02;8.80;;;3.37;;
4464;SDS011;2245;48.136;13.428;2023-03-29T01:18:31;5.50;;;3.23;;
4464;SDS011;2245;48.136;13.428;2023-03-29T01:21:05;6.37;;;3.10;;
4464;SDS011;2245;48.136;13.428;2023-03-29T01:26:35;7.93;;;2.80;;
4464;SDS011;2245;48.136;13.428;2023-03-29T01:29:10;4.27;;;3.10;;
4464;SDS011;2245;48.136;13.428;2023-03-29T01:31:38;7.67;;;2.90;;
4464;SDS011;2245;48.136;13.428;2023-03-29T01:34:09;2.50;;;2.20;;
4464;SDS011;2245;48.136;13.428;2023-03-29T01:36:39;4.80;;;3.30;;
4464;SDS011;2245;48.136;13.428;2023-03-29T01:39:08;7.50;;;2.57;;
4464;SDS011;2245;48.136;13.428;2023-03-29T01:41:47;4.60;;;3.10;;
4464;SDS011;2245;48.136;13.428;2023-03-29T01:44:22;2.53;;;2.07;;
4464;SDS011;2245;48.136;13.428;2023-03-29T01:46:54;2.77;;;2.50;;
4464;SDS011;2245;48.136;13.428;2023-03-29T01:49:30;4.00;;;2.90;;
4464;SDS011;2245;48.136;13.428;2023-03-29T01:52:00;4.03;;;2.90;;
4464;SDS011;2245;48.136;13.428;2023-03-29T01:54:30;4.93;;;2.60;;
4464;SDS011;2245;48.136;13.428;2023-03-29T01:56:58;3.43;;;2.77;;
4464;SDS011;2245;48.136;13.428;2023-03-29T01:59:30;3.77;;;2.70;;
4464;SDS011;2245;48.136;13.428;2023-03-29T02:02:01;2.70;;;2.23;;
4464;SDS011;2245;48.136;13.428;2023-03-29T02:04:30;2.43;;;2.10;;
4464;SDS011;2245;48.136;13.428;2023-03-29T02:06:59;3.63;;;1.93;;
4464;SDS011;2245;48.136;13.428;2023-03-29T02:09:27;2.40;;;2.03;;
4464;SDS011;2245;48.136;13.428;2023-03-29T02:11:55;2.40;;;1.50;;
4464;SDS011;2245;48.136;13.428;2023-03-29T02:14:25;5.87;;;1.77;;
4464;SDS011;2245;48.136;13.428;2023-03-29T02:16:53;2.60;;;1.90;;
4464;SDS011;2245;48.136;13.428;2023-03-29T02:19:20;2.37;;;2.17;;
4464;SDS011;2245;48.136;13.428;2023-03-29T02:21:49;2.17;;;1.97;;
4464;SDS011;2245;48.136;13.428;2023-03-29T02:24:21;2.50;;;2.10;;
4464;SDS011;2245;48.136;13.428;2023-03-29T02:26:50;6.63;;;1.97;;
4464;SDS011;2245;48.136;13.428;2023-03-29T02:29:17;1.83;;;1.70;;
4464;SDS011;2245;48.136;13.428;2023-03-29T02:31:45;3.17;;;1.80;;
4464;SDS011;2245;48.136;13.428;2023-03-29T02:34:18;2.50;;;2.00;;
4464;SDS011;2245;48.136;13.428;2023-03-29T02:36:47;1.70;;;1.60;;
4464;SDS011;2245;48.136;13.428;2023-03-29T02:39:16;2.90;;;1.80;;
4464;SDS011;2245;48.136;13.428;2023-03-29T02:41:44;3.43;;;1.80;;
4464;SDS011;2245;48.136;13.428;2023-03-29T02:44:13;2.17;;;1.97;;
4464;SDS011;2245;48.136;13.428;2023-03-29T02:46:42;1.30;;;1.20;;
4464;SDS011;2245;48.136;13.428;2023-03-29T02:49:09;3.03;;;2.17;;
4464;SDS011;2245;48.136;13.428;2023-03-29T02:51:38;3.07;;;2.37;;
4464;SDS011;2245;48.136;13.428;2023-03-29T02:54:06;4.63;;;1.57;;
4464;SDS011;2245;48.136;13.428;2023-03-29T02:56:41;1.40;;;1.30;;
4464;SDS011;2245;48.136;13.428;2023-03-29T02:59:08;1.07;;;1.00;;
4464;SDS011;2245;48.136;13.428;2023-03-29T03:01:36;3.10;;;1.40;;
4464;SDS011;2245;48.136;13.428;2023-03-29T03:04:03;2.00;;;1.07;;
4464;SDS011;2245;48.136;13.428;2023-03-29T03:06:30;2.73;;;1.57;;
4464;SDS011;2245;48.136;13.428;2023-03-29T03:08:59;2.47;;;1.47;;
4464;SDS011;2245;48.136;13.428;2023-03-29T03:11:26;2.40;;;1.27;;
4464;SDS011;2245;48.136;13.428;2023-03-29T03:13:53;1.20;;;1.03;;
4464;SDS011;2245;48.136;13.428;2023-03-29T03:16:19;1.30;;;1.10;;
4464;SDS011;2245;48.136;13.428;2023-03-29T03:18:46;2.50;;;1.40;;
4464;SDS011;2245;48.136;13.428;2023-03-29T03:21:15;1.47;;;0.97;;
4464;SDS011;2245;48.136;13.428;2023-03-29T03:23:41;1.40;;;1.30;;
4464;SDS011;2245;48.136;13.428;2023-03-29T03:26:11;2.10;;;1.50;;
4464;SDS011;2245;48.136;13.428;2023-03-29T03:28:38;2.87;;;1.70;;
4464;SDS011;2245;48.136;13.428;2023-03-29T03:31:05;2.43;;;1.67;;
4464;SDS011;2245;48.136;13.428;2023-03-29T03:33:32;6.57;;;1.53;;
4464;SDS011;2245;48.136;13.428;2023-03-29T03:35:59;2.20;;;1.40;;
4464;SDS011;2245;48.136;13.428;2023-03-29T03:38:30;2.20;;;1.77;;
4464;SDS011;2245;48.136;13.428;2023-03-29T03:40:57;2.40;;;1.70;;
4464;SDS011;2245;48.136;13.428;2023-03-29T03:43:26;1.40;;;1.30;;
4464;SDS011;2245;48.136;13.428;2023-03-29T03:45:53;2.70;;;1.40;;
4464;SDS011;2245;48.136;13.428;2023-03-29T03:48:20;1.30;;;1.30;;
4464;SDS011;2245;48.136;13.428;2023-03-29T03:50:47;2.40;;;1.33;;
4464;SDS011;2245;48.136;13.428;2023-03-29T03:53:15;1.50;;;1.23;;
4464;SDS011;2245;48.136;13.428;2023-03-29T03:55:46;1.40;;;1.00;;
4464;SDS011;2245;48.136;13.428;2023-03-29T03:58:13;2.73;;;1.43;;
4464;SDS011;2245;48.136;13.428;2023-03-29T04:00:41;1.60;;;1.50;;
4464;SDS011;2245;48.136;13.428;2023-03-29T04:03:09;2.33;;;1.70;;
4464;SDS011;2245;48.136;13.428;2023-03-29T04:05:37;2.50;;;1.53;;
4464;SDS011;2245;48.136;13.428;2023-03-29T04:08:04;1.40;;;1.23;;
4464;SDS011;2245;48.136;13.428;2023-03-29T04:10:32;2.20;;;1.77;;
4464;SDS011;2245;48.136;13.428;2023-03-29T04:12:59;2.67;;;2.47;;
4464;SDS011;2245;48.136;13.428;2023-03-29T04:15:26;4.83;;;2.50;;
4464;SDS011;2245;48.136;13.428;2023-03-29T04:17:54;1.77;;;1.40;;
4464;SDS011;2245;48.136;13.428;2023-03-29T04:20:22;1.70;;;1.40;;
4464;SDS011;2245;48.136;13.428;2023-03-29T04:22:49;2.47;;;1.40;;
4464;SDS011;2245;48.136;13.428;2023-03-29T04:25:16;2.53;;;1.67;;
4464;SDS011;2245;48.136;13.428;2023-03-29T04:27:43;2.83;;;1.70;;
4464;SDS011;2245;48.136;13.428;2023-03-29T04:30:11;3.20;;;1.30;;
4464;SDS011;2245;48.136;13.428;2023-03-29T04:32:38;2.20;;;1.30;;
4464;SDS011;2245;48.136;13.428;2023-03-29T04:35:07;3.20;;;3.00;;
4464;SDS011;2245;48.136;13.428;2023-03-29T04:37:34;2.93;;;2.73;;
4464;SDS011;2245;48.136;13.428;2023-03-29T04:40:04;4.13;;;2.10;;
4464;SDS011;2245;48.136;13.428;2023-03-29T04:42:33;3.17;;;2.47;;
4464;SDS011;2245;48.136;13.428;2023-03-29T04:45:01;2.40;;;2.20;;
4464;SDS011;2245;48.136;13.428;2023-03-29T04:47:28;2.10;;;1.97;;
4464;SDS011;2245;48.136;13.428;2023-03-29T04:49:55;2.20;;;1.50;;
4464;SDS011;2245;48.136;13.428;2023-03-29T04:52:23;6.70;;;4.13;;
4464;SDS011;2245;48.136;13.428;2023-03-29T04:54:51;5.70;;;2.90;;
4464;SDS011;2245;48.136;13.428;2023-03-29T04:57:18;2.60;;;1.60;;
4464;SDS011;2245;48.136;13.428;2023-03-29T04:59:45;3.83;;;2.93;;
4464;SDS011;2245;48.136;13.428;2023-03-29T05:02:11;7.00;;;3.13;;
4464;SDS011;2245;48.136;13.428;2023-03-29T05:04:38;6.23;;;3.97;;
4464;SDS011;2245;48.136;13.428;2023-03-29T05:07:05;4.27;;;3.50;;
4464;SDS011;2245;48.136;13.428;2023-03-29T05:09:33;5.20;;;3.80;;
4464;SDS011;2245;48.136;13.428;2023-03-29T05:12:00;6.87;;;2.80;;
4464;SDS011;2245;48.136;13.428;2023-03-29T05:14:27;12.17;;;6.20;;
4464;SDS011;2245;48.136;13.428;2023-03-29T05:16:54;4.60;;;3.50;;
4464;SDS011;2245;48.136;13.428;2023-03-29T05:19:21;3.87;;;3.20;;
4464;SDS011;2245;48.136;13.428;2023-03-29T05:21:48;1.70;;;1.60;;
4464;SDS011;2245;48.136;13.428;2023-03-29T05:24:15;4.90;;;2.03;;
4464;SDS011;2245;48.136;13.428;2023-03-29T05:26:43;9.80;;;3.40;;
4464;SDS011;2245;48.136;13.428;2023-03-29T05:29:11;6.97;;;4.90;;
4464;SDS011;2245;48.136;13.428;2023-03-29T05:31:38;11.63;;;6.60;;
4464;SDS011;2245;48.136;13.428;2023-03-29T05:34:05;5.60;;;3.57;;
4464;SDS011;2245;48.136;13.428;2023-03-29T05:36:32;2.90;;;1.80;;
4464;SDS011;2245;48.136;13.428;2023-03-29T05:38:59;3.03;;;2.03;;
4464;SDS011;2245;48.136;13.428;2023-03-29T05:41:26;5.80;;;1.87;;
4464;SDS011;2245;48.136;13.428;2023-03-29T05:43:54;3.60;;;2.67;;
4464;SDS011;2245;48.136;13.428;2023-03-29T05:46:22;2.63;;;2.43;;
4464;SDS011;2245;48.136;13.428;2023-03-29T05:48:48;3.70;;;2.60;;
4464;SDS011;2245;48.136;13.428;2023-03-29T05:51:15;2.70;;;2.20;;
4464;SDS011;2245;48.136;13.428;2023-03-29T05:53:43;1.97;;;1.70;;
4464;SDS011;2245;48.136;13.428;2023-03-29T05:56:10;2.30;;;1.73;;
4464;SDS011;2245;48.136;13.428;2023-03-29T05:58:40;2.10;;;1.53;;
4464;SDS011;2245;48.136;13.428;2023-03-29T06:01:11;2.93;;;2.07;;
4464;SDS011;2245;48.136;13.428;2023-03-29T06:03:38;3.80;;;1.63;;
4464;SDS011;2245;48.136;13.428;2023-03-29T06:06:06;3.03;;;1.87;;
4464;SDS011;2245;48.136;13.428;2023-03-29T06:08:33;3.93;;;2.10;;
4464;SDS011;2245;48.136;13.428;2023-03-29T06:11:01;2.43;;;2.20;;
4464;SDS011;2245;48.136;13.428;2023-03-29T06:13:29;3.07;;;1.63;;
4464;SDS011;2245;48.136;13.428;2023-03-29T06:15:57;3.47;;;2.97;;
4464;SDS011;2245;48.136;13.428;2023-03-29T06:18:25;13.97;;;10.90;;
4464;SDS011;2245;48.136;13.428;2023-03-29T06:20:52;5.60;;;4.17;;
4464;SDS011;2245;48.136;13.428;2023-03-29T06:23:19;7.27;;;6.00;;
4464;SDS011;2245;48.136;13.428;2023-03-29T06:25:47;10.33;;;8.00;;
4464;SDS011;2245;48.136;13.428;2023-03-29T06:28:15;7.77;;;6.60;;
4464;SDS011;2245;48.136;13.428;2023-03-29T06:30:43;17.70;;;11.63;;
4464;SDS011;2245;48.136;13.428;2023-03-29T06:33:11;14.20;;;9.53;;
4464;SDS011;2245;48.136;13.428;2023-03-29T06:35:41;15.43;;;10.00;;
4464;SDS011;2245;48.136;13.428;2023-03-29T06:38:09;6.70;;;4.83;;
4464;SDS011;2245;48.136;13.428;2023-03-29T06:40:36;7.97;;;4.70;;
4464;SDS011;2245;48.136;13.428;2023-03-29T06:43:03;9.90;;;8.10;;
4464;SDS011;2245;48.136;13.428;2023-03-29T06:45:31;11.67;;;9.40;;
4464;SDS011;2245;48.136;13.428;2023-03-29T06:48:00;5.87;;;5.17;;
4464;SDS011;2245;48.136;13.428;2023-03-29T06:50:27;8.80;;;3.03;;
4464;SDS011;2245;48.136;13.428;2023-03-29T06:52:55;9.27;;;3.20;;
4464;SDS011;2245;48.136;13.428;2023-03-29T06:55:22;3.40;;;2.73;;
4464;SDS011;2245;48.136;13.428;2023-03-29T06:57:50;3.30;;;2.20;;
4464;SDS011;2245;48.136;13.428;2023-03-29T07:00:18;2.77;;;2.00;;
4464;SDS011;2245;48.136;13.428;2023-03-29T07:02:52;4.10;;;2.37;;
4464;SDS011;2245;48.136;13.428;2023-03-29T07:05:19;1.60;;;1.50;;
4464;SDS011;2245;48.136;13.428;2023-03-29T07:07:46;4.67;;;2.00;;
4464;SDS011;2245;48.136;13.428;2023-03-29T07:10:22;2.93;;;2.30;;
4464;SDS011;2245;48.136;13.428;2023-03-29T07:12:52;3.33;;;3.03;;
4464;SDS011;2245;48.136;13.428;2023-03-29T07:15:19;9.00;;;6.80;;
4464;SDS011;2245;48.136;13.428;2023-03-29T07:17:47;5.77;;;4.37;;
4464;SDS011;2245;48.136;13.428;2023-03-29T07:20:14;6.90;;;5.43;;
4464;SDS011;2245;48.136;13.428;2023-03-29T07:22:42;7.70;;;4.33;;
4464;SDS011;2245;48.136;13.428;2023-03-29T07:25:11;9.07;;;4.90;;
4464;SDS011;2245;48.136;13.428;2023-03-29T07:27:41;9.63;;;5.97;;
4464;SDS011;2245;48.136;13.428;2023-03-29T07:30:09;4.57;;;4.17;;
4464;SDS011;2245;48.136;13.428;2023-03-29T07:32:37;3.17;;;2.83;;
4464;SDS011;2245;48.136;13.428;2023-03-29T07:35:04;4.17;;;3.17;;
4464;SDS011;2245;48.136;13.428;2023-03-29T07:37:32;4.27;;;2.50;;
4464;SDS011;2245;48.136;13.428;2023-03-29T07:40:01;4.77;;;2.77;;
4464;SDS011;2245;48.136;13.428;2023-03-29T07:42:33;2.50;;;2.30;;
4464;SDS011;2245;48.136;13.428;2023-03-29T07:45:02;4.03;;;2.07;;
4464;SDS011;2245;48.136;13.428;2023-03-29T07:47:29;2.13;;;2.03;;
4464;SDS011;2245;48.136;13.428;2023-03-29T07:49:56;3.67;;;2.33;;
4464;SDS011;2245;48.136;13.428;2023-03-29T07:52:23;7.83;;;4.13;;
4464;SDS011;2245;48.136;13.428;2023-03-29T07:54:52;5.40;;;3.90;;
4464;SDS011;2245;48.136;13.428;2023-03-29T07:57:19;11.73;;;5.27;;
4464;SDS011;2245;48.136;13.428;2023-03-29T07:59:46;4.80;;;4.30;;
4464;SDS011;2245;48.136;13.428;2023-03-29T08:02:14;9.93;;;4.37;;
4464;SDS011;2245;48.136;13.428;2023-03-29T08:04:41;5.67;;;4.83;;
4464;SDS011;2245;48.136;13.428;2023-03-29T08:07:08;8.33;;;4.17;;
4464;SDS011;2245;48.136;13.428;2023-03-29T08:09:35;3.07;;;2.70;;
4464;SDS011;2245;48.136;13.428;2023-03-29T08:12:02;3.13;;;2.83;;
4464;SDS011;2245;48.136;13.428;2023-03-29T08:14:29;4.43;;;3.37;;
4464;SDS011;2245;48.136;13.428;2023-03-29T08:16:56;5.20;;;4.00;;
4464;SDS011;2245;48.136;13.428;2023-03-29T08:19:24;3.23;;;2.93;;
4464;SDS011;2245;48.136;13.428;2023-03-29T08:21:51;3.70;;;3.00;;
4464;SDS011;2245;48.136;13.428;2023-03-29T08:24:18;2.73;;;2.23;;
4464;SDS011;2245;48.136;13.428;2023-03-29T08:26:45;4.20;;;3.20;;
4464;SDS011;2245;48.136;13.428;2023-03-29T08:29:13;5.40;;;4.10;;
4464;SDS011;2245;48.136;13.428;2023-03-29T08:31:39;3.33;;;2.20;;
4464;SDS011;2245;48.136;13.428;2023-03-29T08:34:07;2.60;;;2.30;;
4464;SDS011;2245;48.136;13.428;2023-03-29T08:36:35;2.60;;;1.87;;
4464;SDS011;2245;48.136;13.428;2023-03-29T08:39:02;4.60;;;2.30;;
4464;SDS011;2245;48.136;13.428;2023-03-29T08:41:32;2.60;;;2.00;;
4464;SDS011;2245;48.136;13.428;2023-03-29T08:44:09;2.50;;;1.80;;
4464;SDS011;2245;48.136;13.428;2023-03-29T08:46:46;8.13;;;2.77;;
4464;SDS011;2245;48.136;13.428;2023-03-29T08:49:16;3.40;;;2.10;;
4464;SDS011;2245;48.136;13.428;2023-03-29T08:51:46;2.57;;;2.07;;
4464;SDS011;2245;48.136;13.428;2023-03-29T08:54:15;1.93;;;1.80;;
4464;SDS011;2245;48.136;13.428;2023-03-29T08:56:44;2.90;;;2.03;;
4464;SDS011;2245;48.136;13.428;2023-03-29T08:59:15;7.33;;;1.97;;
4464;SDS011;2245;48.136;13.428;2023-03-29T09:01:43;4.90;;;2.77;;
4464;SDS011;2245;48.136;13.428;2023-03-29T09:04:11;5.00;;;2.87;;
4464;SDS011;2245;48.136;13.428;2023-03-29T09:06:40;11.37;;;4.80;;
4464;SDS011;2245;48.136;13.428;2023-03-29T09:09:11;10.57;;;6.90;;
4464;SDS011;2245;48.136;13.428;2023-03-29T09:11:44;12.90;;;7.77;;
4464;SDS011;2245;48.136;13.428;2023-03-29T09:14:32;13.00;;;8.27;;
4464;SDS011;2245;48.136;13.428;2023-03-29T09:17:10;2.03;;;1.90;;
4464;SDS011;2245;48.136;13.428;2023-03-29T09:19:54;5.57;;;3.20;;
4464;SDS011;2245;48.136;13.428;2023-03-29T09:22:26;3.23;;;2.97;;
4464;SDS011;2245;48.136;13.428;2023-03-29T09:25:03;3.73;;;3.40;;
4464;SDS011;2245;48.136;13.428;2023-03-29T09:27:38;3.27;;;2.97;;
4464;SDS011;2245;48.136;13.428;2023-03-29T09:30:13;3.03;;;2.30;;
4464;SDS011;2245;48.136;13.428;2023-03-29T09:32:46;9.20;;;3.30;;
4464;SDS011;2245;48.136;13.428;2023-03-29T09:35:16;3.07;;;1.40;;
4464;SDS011;2245;48.136;13.428;2023-03-29T09:37:48;5.60;;;1.97;;
4464;SDS011;2245;48.136;13.428;2023-03-29T09:40:18;2.60;;;2.40;;
4464;SDS011;2245;48.136;13.428;2023-03-29T09:42:47;2.00;;;1.70;;
4464;SDS011;2245;48.136;13.428;2023-03-29T09:45:15;6.50;;;2.70;;
4464;SDS011;2245;48.136;13.428;2023-03-29T09:47:43;2.00;;;1.80;;
4464;SDS011;2245;48.136;13.428;2023-03-29T09:50:13;2.90;;;1.70;;
4464;SDS011;2245;48.136;13.428;2023-03-29T09:52:44;5.77;;;2.80;;
4464;SDS011;2245;48.136;13.428;2023-03-29T09:55:12;2.70;;;2.07;;
4464;SDS011;2245;48.136;13.428;2023-03-29T09:57:41;2.87;;;1.50;;
4464;SDS011;2245;48.136;13.428;2023-03-29T10:00:09;4.87;;;2.00;;
4464;SDS011;2245;48.136;13.428;2023-03-29T10:02:38;6.90;;;2.00;;
4464;SDS011;2245;48.136;13.428;2023-03-29T10:05:05;11.93;;;2.70;;
4464;SDS011;2245;48.136;13.428;2023-03-29T10:07:35;3.73;;;2.27;;
4464;SDS011;2245;48.136;13.428;2023-03-29T10:10:09;3.97;;;2.03;;
4464;SDS011;2245;48.136;13.428;2023-03-29T10:12:39;3.43;;;2.00;;
4464;SDS011;2245;48.136;13.428;2023-03-29T10:15:08;8.00;;;3.70;;
4464;SDS011;2245;48.136;13.428;2023-03-29T10:17:39;8.43;;;5.63;;
4464;SDS011;2245;48.136;13.428;2023-03-29T10:20:09;8.17;;;2.20;;
4464;SDS011;2245;48.136;13.428;2023-03-29T10:22:44;12.40;;;4.50;;
4464;SDS011;2245;48.136;13.428;2023-03-29T10:25:13;28.50;;;11.40;;
4464;SDS011;2245;48.136;13.428;2023-03-29T10:27:43;37.50;;;4.50;;
4464;SDS011;2245;48.136;13.428;2023-03-29T10:30:11;3.13;;;1.20;;
4464;SDS011;2245;48.136;13.428;2023-03-29T10:32:44;5.60;;;1.90;;
4464;SDS011;2245;48.136;13.428;2023-03-29T10:35:13;4.13;;;1.60;;
4464;SDS011;2245;48.136;13.428;2023-03-29T10:37:43;2.13;;;1.70;;
4464;SDS011;2245;48.136;13.428;2023-03-29T10:40:17;17.60;;;2.40;;
4464;SDS011;2245;48.136;13.428;2023-03-29T10:42:48;4.10;;;2.20;;
4464;SDS011;2245;48.136;13.428;2023-03-29T10:45:18;11.47;;;1.80;;
4464;SDS011;2245;48.136;13.428;2023-03-29T10:47:47;7.40;;;2.03;;
4464;SDS011;2245;48.136;13.428;2023-03-29T10:50:14;1.03;;;0.83;;
4464;SDS011;2245;48.136;13.428;2023-03-29T10:52:41;2.20;;;1.10;;
4464;SDS011;2245;48.136;13.428;2023-03-29T10:55:11;8.43;;;3.00;;
4464;SDS011;2245;48.136;13.428;2023-03-29T10:57:40;1.80;;;1.30;;
4464;SDS011;2245;48.136;13.428;2023-03-29T11:00:17;1.20;;;1.10;;
4464;SDS011;2245;48.136;13.428;2023-03-29T11:02:52;8.03;;;1.80;;
4464;SDS011;2245;48.136;13.428;2023-03-29T11:05:33;1.60;;;1.30;;
4464;SDS011;2245;48.136;13.428;2023-03-29T11:08:08;3.13;;;1.90;;
4464;SDS011;2245;48.136;13.428;2023-03-29T11:11:00;4.43;;;1.80;;
4464;SDS011;2245;48.136;13.428;2023-03-29T11:13:37;3.17;;;1.37;;
4464;SDS011;2245;48.136;13.428;2023-03-29T11:16:09;1.60;;;1.20;;
4464;SDS011;2245;48.136;13.428;2023-03-29T11:18:48;1.20;;;1.10;;
4464;SDS011;2245;48.136;13.428;2023-03-29T11:21:35;9.57;;;1.50;;
4464;SDS011;2245;48.136;13.428;2023-03-29T11:24:13;1.53;;;1.17;;
4464;SDS011;2245;48.136;13.428;2023-03-29T11:26:56;2.40;;;1.50;;
4464;SDS011;2245;48.136;13.428;2023-03-29T11:29:30;2.87;;;1.50;;
4464;SDS011;2245;48.136;13.428;2023-03-29T11:32:01;9.87;;;1.83;;
4464;SDS011;2245;48.136;13.428;2023-03-29T11:34:32;1.63;;;1.33;;
4464;SDS011;2245;48.136;13.428;2023-03-29T11:37:05;5.57;;;2.13;;
4464;SDS011;2245;48.136;13.428;2023-03-29T11:39:40;5.40;;;3.13;;
4464;SDS011;2245;48.136;13.428;2023-03-29T11:42:11;2.37;;;2.17;;
4464;SDS011;2245;48.136;13.428;2023-03-29T11:44:43;2.73;;;1.60;;
4464;SDS011;2245;48.136;13.428;2023-03-29T11:47:11;5.40;;;2.43;;
4464;SDS011;2245;48.136;13.428;2023-03-29T11:49:41;18.60;;;3.60;;
4464;SDS011;2245;48.136;13.428;2023-03-29T11:52:10;2.20;;;1.87;;
4464;SDS011;2245;48.136;13.428;2023-03-29T11:54:39;10.93;;;3.60;;
4464;SDS011;2245;48.136;13.428;2023-03-29T11:57:11;10.33;;;3.17;;
4464;SDS011;2245;48.136;13.428;2023-03-29T11:59:44;5.17;;;1.80;;
4464;SDS011;2245;48.136;13.428;2023-03-29T12:02:16;5.60;;;1.47;;
4464;SDS011;2245;48.136;13.428;2023-03-29T12:04:45;3.57;;;1.40;;
4464;SDS011;2245;48.136;13.428;2023-03-29T12:07:15;5.10;;;1.37;;
4464;SDS011;2245;48.136;13.428;2023-03-29T12:09:46;1.60;;;1.27;;
4464;SDS011;2245;48.136;13.428;2023-03-29T12:12:16;4.63;;;2.07;;
4464;SDS011;2245;48.136;13.428;2023-03-29T12:14:48;7.77;;;2.10;;
4464;SDS011;2245;48.136;13.428;2023-03-29T12:17:22;4.03;;;2.80;;
4464;SDS011;2245;48.136;13.428;2023-03-29T12:19:54;3.43;;;2.73;;
4464;SDS011;2245;48.136;13.428;2023-03-29T12:22:28;4.83;;;2.90;;
4464;SDS011;2245;48.136;13.428;2023-03-29T12:24:55;4.93;;;3.83;;
4464;SDS011;2245;48.136;13.428;2023-03-29T12:27:23;12.40;;;5.03;;
4464;SDS011;2245;48.136;13.428;2023-03-29T12:33:10;10.53;;;3.67;;
4464;SDS011;2245;48.136;13.428;2023-03-29T12:35:47;8.00;;;4.30;;
4464;SDS011;2245;48.136;13.428;2023-03-29T12:38:18;16.30;;;4.40;;
4464;SDS011;2245;48.136;13.428;2023-03-29T12:40:47;11.27;;;5.63;;
4464;SDS011;2245;48.136;13.428;2023-03-29T12:43:21;6.43;;;3.90;;
4464;SDS011;2245;48.136;13.428;2023-03-29T12:45:51;14.40;;;4.73;;
4464;SDS011;2245;48.136;13.428;2023-03-29T12:48:22;7.00;;;4.50;;
4464;SDS011;2245;48.136;13.428;2023-03-29T12:50:51;5.90;;;4.20;;
4464;SDS011;2245;48.136;13.428;2023-03-29T12:53:20;6.43;;;4.33;;
4464;SDS011;2245;48.136;13.428;2023-03-29T12:55:50;8.30;;;4.40;;
4464;SDS011;2245;48.136;13.428;2023-03-29T12:58:23;6.93;;;4.50;;
4464;SDS011;2245;48.136;13.428;2023-03-29T13:01:02;4.87;;;3.70;;
4464;SDS011;2245;48.136;13.428;2023-03-29T13:03:39;8.00;;;4.30;;
4464;SDS011;2245;48.136;13.428;2023-03-29T13:06:08;13.97;;;5.63;;
4464;SDS011;2245;48.136;13.428;2023-03-29T13:08:36;7.33;;;4.20;;
4464;SDS011;2245;48.136;13.428;2023-03-29T13:11:05;6.47;;;5.13;;
4464;SDS011;2245;48.136;13.428;2023-03-29T13:13:37;6.40;;;4.53;;
4464;SDS011;2245;48.136;13.428;2023-03-29T13:16:10;9.73;;;5.00;;
4464;SDS011;2245;48.136;13.428;2023-03-29T13:18:47;8.70;;;4.60;;
4464;SDS011;2245;48.136;13.428;2023-03-29T13:21:20;10.33;;;4.30;;
4464;SDS011;2245;48.136;13.428;2023-03-29T13:23:51;2.50;;;1.87;;
4464;SDS011;2245;48.136;13.428;2023-03-29T13:26:32;2.47;;;2.27;;
4464;SDS011;2245;48.136;13.428;2023-03-29T13:32:00;4.60;;;1.40;;
4464;SDS011;2245;48.136;13.428;2023-03-29T13:34:36;5.50;;;3.27;;
4464;SDS011;2245;48.136;13.428;2023-03-29T13:37:21;16.00;;;3.30;;
4464;SDS011;2245;48.136;13.428;2023-03-29T13:39:53;37.00;;;4.80;;
4464;SDS011;2245;48.136;13.428;2023-03-29T13:42:22;11.20;;;5.50;;
4464;SDS011;2245;48.136;13.428;2023-03-29T13:44:50;8.53;;;5.50;;
4464;SDS011;2245;48.136;13.428;2023-03-29T13:47:33;8.13;;;3.33;;
4464;SDS011;2245;48.136;13.428;2023-03-29T13:50:08;9.30;;;5.63;;
4464;SDS011;2245;48.136;13.428;2023-03-29T13:52:41;11.93;;;5.60;;
4464;SDS011;2245;48.136;13.428;2023-03-29T13:55:13;6.50;;;4.50;;
4464;SDS011;2245;48.136;13.428;2023-03-29T13:57:42;11.37;;;7.13;;
4464;SDS011;2245;48.136;13.428;2023-03-29T14:00:14;8.73;;;4.90;;
4464;SDS011;2245;48.136;13.428;2023-03-29T14:02:44;7.27;;;5.30;;
4464;SDS011;2245;48.136;13.428;2023-03-29T14:05:15;25.70;;;7.40;;
4464;SDS011;2245;48.136;13.428;2023-03-29T14:07:45;2.90;;;2.40;;
4464;SDS011;2245;48.136;13.428;2023-03-29T14:10:13;11.30;;;2.20;;
4464;SDS011;2245;48.136;13.428;2023-03-29T14:12:41;7.10;;;1.60;;
4464;SDS011;2245;48.136;13.428;2023-03-29T14:15:17;1.03;;;1.00;;
4464;SDS011;2245;48.136;13.428;2023-03-29T14:17:46;5.00;;;1.40;;
4464;SDS011;2245;48.136;13.428;2023-03-29T14:20:13;20.17;;;2.47;;
4464;SDS011;2245;48.136;13.428;2023-03-29T14:22:42;3.80;;;1.33;;
4464;SDS011;2245;48.136;13.428;2023-03-29T14:25:11;13.23;;;2.07;;
4464;SDS011;2245;48.136;13.428;2023-03-29T14:27:39;2.63;;;1.10;;
4464;SDS011;2245;48.136;13.428;2023-03-29T14:30:17;1.43;;;1.17;;
4464;SDS011;2245;48.136;13.428;2023-03-29T14:32:46;3.63;;;1.63;;
4464;SDS011;2245;48.136;13.428;2023-03-29T14:35:13;2.87;;;1.37;;
4464;SDS011;2245;48.136;13.428;2023-03-29T14:37:42;8.87;;;1.53;;
4464;SDS011;2245;48.136;13.428;2023-03-29T14:40:11;5.23;;;1.50;;
4464;SDS011;2245;48.136;13.428;2023-03-29T14:42:43;5.60;;;1.30;;
4464;SDS011;2245;48.136;13.428;2023-03-29T14:45:11;3.70;;;2.00;;
4464;SDS011;2245;48.136;13.428;2023-03-29T14:47:39;3.70;;;1.13;;
4464;SDS011;2245;48.136;13.428;2023-03-29T14:50:07;6.73;;;1.77;;
4464;SDS011;2245;48.136;13.428;2023-03-29T14:52:44;2.47;;;2.23;;
4464;SDS011;2245;48.136;13.428;2023-03-29T14:55:11;5.90;;;1.80;;
4464;SDS011;2245;48.136;13.428;2023-03-29T14:57:40;3.60;;;1.47;;
4464;SDS011;2245;48.136;13.428;2023-03-29T15:00:16;2.00;;;1.20;;
4464;SDS011;2245;48.136;13.428;2023-03-29T15:02:49;4.13;;;1.47;;
4464;SDS011;2245;48.136;13.428;2023-03-29T15:05:24;2.23;;;1.53;;
4464;SDS011;2245;48.136;13.428;2023-03-29T15:07:57;9.03;;;4.53;;
4464;SDS011;2245;48.136;13.428;2023-03-29T15:10:24;12.03;;;5.80;;
4464;SDS011;2245;48.136;13.428;2023-03-29T15:12:51;8.13;;;4.73;;
4464;SDS011;2245;48.136;13.428;2023-03-29T15:15:19;4.50;;;3.13;;
4464;SDS011;2245;48.136;13.428;2023-03-29T15:17:46;9.90;;;4.70;;
4464;SDS011;2245;48.136;13.428;2023-03-29T15:20:15;13.90;;;6.20;;
4464;SDS011;2245;48.136;13.428;2023-03-29T15:22:52;11.30;;;5.77;;
4464;SDS011;2245;48.136;13.428;2023-03-29T15:25:24;14.60;;;6.43;;